createdAt,value
2023-01-29T00:02:06.393Z,102411.63
2023-01-29T00:04:33.081Z,102414.38
2023-01-29T00:07:00.071Z,102405.38
2023-01-29T00:09:27.953Z,102400.00
2023-01-29T00:11:54.602Z,102394.00
2023-01-29T00:14:21.410Z,102397.50
2023-01-29T00:16:48.091Z,102405.38
2023-01-29T00:19:14.811Z,102407.47
2023-01-29T00:21:41.576Z,102410.88
2023-01-29T00:24:08.334Z,102410.81
2023-01-29T00:26:35.062Z,102403.66
2023-01-29T00:29:02.750Z,102395.19
2023-01-29T00:31:29.917Z,102389.22
2023-01-29T00:33:57.102Z,102392.72
2023-01-29T00:36:25.185Z,102388.41
2023-01-29T00:39:00.684Z,102390.22
2023-01-29T00:41:51.123Z,102384.66
2023-01-29T00:44:36.896Z,102377.44
2023-01-29T00:47:04.812Z,102373.16
2023-01-29T00:49:31.558Z,102360.91
2023-01-29T00:52:17.536Z,102363.59
2023-01-29T00:54:44.196Z,102359.00
2023-01-29T00:57:13.975Z,102368.84
2023-01-29T00:59:40.609Z,102366.03
2023-01-29T01:02:26.064Z,102372.34
2023-01-29T01:04:52.678Z,102375.59
2023-01-29T01:07:19.579Z,102374.94
2023-01-29T01:10:04.846Z,102369.91
2023-01-29T01:12:32.114Z,102373.56
2023-01-29T01:14:58.760Z,102381.50
2023-01-29T01:17:25.463Z,102375.84
2023-01-29T01:19:52.208Z,102379.63
2023-01-29T01:22:19.061Z,102373.72
2023-01-29T01:24:45.714Z,102364.84
2023-01-29T01:27:13.378Z,102365.72
2023-01-29T01:29:40.845Z,102367.63
2023-01-29T01:32:07.994Z,102372.94
2023-01-29T01:34:34.647Z,102364.25
2023-01-29T01:37:01.546Z,102365.16
2023-01-29T01:39:28.212Z,102367.84
2023-01-29T01:41:55.423Z,102367.72
2023-01-29T01:45:00.733Z,102369.53
2023-01-29T01:47:32.076Z,102382.88
2023-01-29T01:50:04.017Z,102381.16
2023-01-29T01:52:31.883Z,102387.16
2023-01-29T01:54:59.090Z,102380.13
2023-01-29T01:57:26.468Z,102375.63
2023-01-29T02:00:01.166Z,102359.13
2023-01-29T02:02:46.572Z,102366.97
2023-01-29T02:05:32.875Z,102366.09
2023-01-29T02:08:18.695Z,102358.19
2023-01-29T02:10:47.392Z,102344.06
2023-01-29T02:13:16.194Z,102347.78
2023-01-29T02:15:46.965Z,102341.44
2023-01-29T02:18:14.775Z,102344.88
2023-01-29T02:21:25.069Z,102350.72
2023-01-29T02:24:18.249Z,102345.00
2023-01-29T02:26:56.481Z,102335.75
2023-01-29T02:29:30.654Z,102327.97
2023-01-29T02:32:31.860Z,102333.44
2023-01-29T02:35:26.183Z,102331.88
2023-01-29T02:38:28.719Z,102333.63
2023-01-29T02:41:02.538Z,102340.66
2023-01-29T02:43:54.052Z,102341.66
2023-01-29T02:46:47.181Z,102342.47
2023-01-29T02:49:32.262Z,102342.56
2023-01-29T02:52:09.992Z,102337.25
2023-01-29T02:54:55.756Z,102332.09
2023-01-29T02:57:29.329Z,102325.13
2023-01-29T03:00:00.335Z,102325.28
2023-01-29T03:02:39.945Z,102325.13
2023-01-29T03:05:10.697Z,102327.75
2023-01-29T03:07:42.729Z,102320.78
2023-01-29T03:10:18.218Z,102321.88
2023-01-29T03:12:48.131Z,102325.28
2023-01-29T03:15:26.769Z,102320.84
2023-01-29T03:18:16.818Z,102321.72
2023-01-29T03:20:49.317Z,102324.09
2023-01-29T03:23:27.189Z,102318.00
2023-01-29T03:26:13.885Z,102323.31
2023-01-29T03:29:01.304Z,102317.03
2023-01-29T03:31:47.885Z,102317.34
2023-01-29T03:34:24.300Z,102315.22
2023-01-29T03:36:57.965Z,102306.59
2023-01-29T03:39:28.773Z,102297.84
2023-01-29T03:42:26.761Z,102296.91
2023-01-29T03:45:03.734Z,102293.56
2023-01-29T03:47:46.374Z,102285.47
2023-01-29T03:50:38.668Z,102287.47
2023-01-29T03:53:21.385Z,102284.69
2023-01-29T03:56:01.352Z,102280.28
2023-01-29T03:58:34.309Z,102273.22
2023-01-29T04:01:21.396Z,102274.16
2023-01-29T04:03:54.371Z,102254.66
2023-01-29T04:06:23.386Z,102243.41
2023-01-29T04:09:04.365Z,102237.28
2023-01-29T04:11:34.165Z,102231.22
2023-01-29T04:14:01.138Z,102231.31
2023-01-29T04:16:31.705Z,102223.63
2023-01-29T04:19:14.089Z,102218.22
2023-01-29T04:21:43.307Z,102216.47
2023-01-29T04:24:11.317Z,102211.16
2023-01-29T04:26:56.279Z,102212.84
2023-01-29T04:29:41.199Z,102213.78
2023-01-29T04:32:13.763Z,102213.69
2023-01-29T04:34:54.129Z,102200.34
2023-01-29T04:37:33.796Z,102188.91
2023-01-29T04:40:09.505Z,102187.06
2023-01-29T04:42:55.777Z,102195.19
2023-01-29T04:45:37.002Z,102196.09
2023-01-29T04:48:19.659Z,102198.69
2023-01-29T04:51:25.017Z,102207.63
2023-01-29T04:54:01.166Z,102195.88
2023-01-29T04:56:36.328Z,102201.31
2023-01-29T04:59:06.676Z,102188.47
2023-01-29T05:01:34.147Z,102195.41
2023-01-29T05:04:05.767Z,102193.38
2023-01-29T05:06:32.909Z,102197.75
2023-01-29T05:09:00.898Z,102198.91
2023-01-29T05:11:27.675Z,102194.47
2023-01-29T05:13:54.736Z,102197.22
2023-01-29T05:16:28.344Z,102205.47
2023-01-29T05:18:55.147Z,102207.31
2023-01-29T05:21:23.220Z,102204.28
2023-01-29T05:24:13.251Z,102200.03
2023-01-29T05:26:59.629Z,102208.56
2023-01-29T05:29:26.381Z,102197.56
2023-01-29T05:31:53.093Z,102204.69
2023-01-29T05:34:19.822Z,102202.84
2023-01-29T05:36:46.445Z,102199.31
2023-01-29T05:39:13.111Z,102199.41
2023-01-29T05:41:39.818Z,102206.34
2023-01-29T05:44:06.541Z,102198.19
2023-01-29T05:46:33.226Z,102208.06
2023-01-29T05:49:00.028Z,102210.72
2023-01-29T05:51:26.653Z,102219.53
2023-01-29T05:53:53.918Z,102218.75
2023-01-29T05:56:23.808Z,102220.47
2023-01-29T05:58:50.473Z,102213.28
2023-01-29T06:01:19.610Z,102220.28
2023-01-29T06:03:46.841Z,102221.25
2023-01-29T06:06:13.761Z,102226.63
2023-01-29T06:08:40.832Z,102223.84
2023-01-29T06:11:10.032Z,102235.38
2023-01-29T06:13:39.666Z,102240.53
2023-01-29T06:16:08.013Z,102231.75
2023-01-29T06:18:38.479Z,102237.09
2023-01-29T06:21:06.605Z,102247.94
2023-01-29T06:23:36.213Z,102239.38
2023-01-29T06:26:05.292Z,102244.84
2023-01-29T06:28:31.902Z,102239.63
2023-01-29T06:31:08.264Z,102234.22
2023-01-29T06:33:38.775Z,102228.22
2023-01-29T06:36:05.889Z,102224.91
2023-01-29T06:38:35.779Z,102233.59
2023-01-29T06:41:09.499Z,102237.25
2023-01-29T06:43:36.149Z,102232.91
2023-01-29T06:46:02.832Z,102236.28
2023-01-29T06:48:29.478Z,102224.03
2023-01-29T06:50:56.159Z,102238.16
2023-01-29T06:53:22.859Z,102242.53
2023-01-29T06:55:53.272Z,102248.78
2023-01-29T06:58:20.056Z,102245.13
2023-01-29T07:00:46.990Z,102249.53
2023-01-29T07:03:14.093Z,102237.38
2023-01-29T07:05:40.898Z,102229.56
2023-01-29T07:08:07.540Z,102230.41
2023-01-29T07:10:34.227Z,102231.34
2023-01-29T07:13:01.053Z,102224.94
2023-01-29T07:15:28.047Z,102225.91
2023-01-29T07:18:02.321Z,102233.16
2023-01-29T07:20:30.234Z,102221.56
2023-01-29T07:22:57.584Z,102211.09
2023-01-29T07:25:25.171Z,102224.34
2023-01-29T07:27:51.856Z,102227.88
2023-01-29T07:30:18.788Z,102227.63
2023-01-29T07:32:45.658Z,102230.13
2023-01-29T07:35:12.333Z,102234.69
2023-01-29T07:37:39.168Z,102236.63
2023-01-29T07:40:11.279Z,102246.06
2023-01-29T07:42:43.031Z,102240.91
2023-01-29T07:45:10.980Z,102242.31
2023-01-29T07:47:37.663Z,102228.47
2023-01-29T07:50:05.065Z,102220.66
2023-01-29T07:52:32.942Z,102205.69
2023-01-29T07:54:59.795Z,102198.72
2023-01-29T07:57:26.498Z,102187.38
2023-01-29T07:59:53.251Z,102194.44
2023-01-29T08:02:19.916Z,102193.50
2023-01-29T08:04:49.682Z,102202.44
2023-01-29T08:07:16.307Z,102199.94
2023-01-29T08:09:48.176Z,102202.53
2023-01-29T08:12:14.984Z,102202.47
2023-01-29T08:14:41.652Z,102195.66
2023-01-29T08:17:08.489Z,102188.53
2023-01-29T08:19:35.169Z,102191.28
2023-01-29T08:22:01.818Z,102188.56
2023-01-29T08:24:36.199Z,102187.75
2023-01-29T08:27:14.669Z,102179.81
2023-01-29T08:29:41.406Z,102172.09
2023-01-29T08:32:11.273Z,102186.09
2023-01-29T08:34:37.960Z,102180.91
2023-01-29T08:37:04.843Z,102178.81
2023-01-29T08:39:33.646Z,102176.47
2023-01-29T08:42:00.413Z,102179.00
2023-01-29T08:44:27.157Z,102193.09
2023-01-29T08:46:53.814Z,102195.09
2023-01-29T08:49:20.511Z,102201.28
2023-01-29T08:51:51.664Z,102190.94
2023-01-29T08:54:19.326Z,102192.72
2023-01-29T08:56:47.775Z,102192.69
2023-01-29T08:59:14.390Z,102178.75
2023-01-29T09:01:41.105Z,102182.25
2023-01-29T09:04:07.904Z,102180.13
2023-01-29T09:06:34.742Z,102180.78
2023-01-29T09:09:01.587Z,102182.06
2023-01-29T09:11:28.268Z,102175.13
2023-01-29T09:13:54.932Z,102168.06
2023-01-29T09:16:21.600Z,102169.13
2023-01-29T09:18:48.285Z,102172.81
2023-01-29T09:21:14.905Z,102177.84
2023-01-29T09:23:41.585Z,102179.63
2023-01-29T09:26:08.855Z,102166.50
2023-01-29T09:28:35.501Z,102173.75
2023-01-29T09:31:03.334Z,102172.97
2023-01-29T09:33:33.268Z,102170.41
2023-01-29T09:35:59.996Z,102160.78
2023-01-29T09:38:26.752Z,102162.63
2023-01-29T09:41:20.340Z,102154.91
2023-01-29T09:43:55.681Z,102161.56
2023-01-29T09:46:48.570Z,102151.00
2023-01-29T09:49:24.953Z,102150.91
2023-01-29T09:51:56.671Z,102154.72
2023-01-29T09:54:25.281Z,102145.28
2023-01-29T09:56:56.763Z,102140.66
2023-01-29T09:59:33.105Z,102139.25
2023-01-29T10:02:09.419Z,102136.75
2023-01-29T10:04:39.108Z,102121.31
2023-01-29T10:07:19.405Z,102107.50
2023-01-29T10:09:52.400Z,102108.50
2023-01-29T10:13:01.034Z,102103.66
2023-01-29T10:16:08.683Z,102100.44
2023-01-29T10:18:47.603Z,102101.34
2023-01-29T10:21:23.428Z,102086.47
2023-01-29T10:23:54.293Z,102085.72
2023-01-29T10:26:24.008Z,102081.44
2023-01-29T10:28:52.777Z,102093.84
2023-01-29T10:31:32.826Z,102098.28
2023-01-29T10:34:11.866Z,102101.72
2023-01-29T10:36:46.513Z,102099.19
2023-01-29T10:39:24.908Z,102097.56
2023-01-29T10:42:16.227Z,102092.38
2023-01-29T10:44:48.743Z,102093.19
2023-01-29T10:47:41.214Z,102096.00
2023-01-29T10:50:19.434Z,102082.78
2023-01-29T10:53:13.676Z,102077.50
2023-01-29T10:56:21.800Z,102062.38
2023-01-29T10:58:55.261Z,102058.03
2023-01-29T11:01:22.171Z,102056.31
2023-01-29T11:03:58.647Z,102047.50
2023-01-29T11:06:30.663Z,102058.81
2023-01-29T11:09:29.552Z,102049.97
2023-01-29T11:12:12.114Z,102044.69
2023-01-29T11:15:14.545Z,102040.75
2023-01-29T11:18:01.332Z,102037.38
2023-01-29T11:20:29.773Z,102032.16
2023-01-29T11:22:56.480Z,102026.88
2023-01-29T11:25:23.283Z,102034.72
2023-01-29T11:27:53.266Z,102023.38
2023-01-29T11:30:24.261Z,102016.41
2023-01-29T11:33:20.811Z,102018.94
2023-01-29T11:35:47.709Z,102015.44
2023-01-29T11:38:25.719Z,102011.03
2023-01-29T11:40:52.883Z,102003.16
2023-01-29T11:43:22.459Z,102000.41
2023-01-29T11:45:51.526Z,101991.66
2023-01-29T11:48:20.406Z,101991.75
2023-01-29T11:51:04.823Z,101991.81
2023-01-29T11:53:45.307Z,101981.25
2023-01-29T11:56:35.325Z,101976.78
2023-01-29T11:59:04.658Z,101977.56
2023-01-29T12:01:34.489Z,101984.69
2023-01-29T12:04:01.502Z,101973.97
2023-01-29T12:06:34.452Z,101967.91
2023-01-29T12:09:02.658Z,101966.09
2023-01-29T12:11:30.274Z,101960.75
2023-01-29T12:14:02.355Z,101961.66
2023-01-29T12:16:55.118Z,101959.16
2023-01-29T12:19:45.223Z,101956.50
2023-01-29T12:22:21.457Z,101952.09
2023-01-29T12:24:55.760Z,101947.69
2023-01-29T12:27:26.683Z,101948.66
2023-01-29T12:30:19.794Z,101951.28
2023-01-29T12:33:06.743Z,101946.69
2023-01-29T12:35:36.821Z,101941.41
2023-01-29T12:38:10.259Z,101931.63
2023-01-29T12:40:43.583Z,101926.38
2023-01-29T12:43:18.237Z,101925.63
2023-01-29T12:45:48.468Z,101918.50
2023-01-29T12:48:23.560Z,101905.41
2023-01-29T12:50:50.448Z,101892.97
2023-01-29T12:53:32.061Z,101891.25
2023-01-29T12:56:23.869Z,101899.97
2023-01-29T12:58:52.969Z,101914.97
2023-01-29T13:01:37.058Z,101903.44
2023-01-29T13:04:07.506Z,101898.09
2023-01-29T13:06:42.767Z,101900.72
2023-01-29T13:09:14.043Z,101901.56
2023-01-29T13:11:45.714Z,101899.03
2023-01-29T13:14:25.806Z,101906.03
2023-01-29T13:16:57.660Z,101899.06
2023-01-29T13:19:31.623Z,101901.75
2023-01-29T13:22:00.978Z,101899.03
2023-01-29T13:24:33.913Z,101890.28
2023-01-29T13:27:01.080Z,101892.91
2023-01-29T13:29:31.418Z,101885.91
2023-01-29T13:32:00.176Z,101888.50
2023-01-29T13:34:29.433Z,101886.66
2023-01-29T13:36:58.390Z,101890.97
2023-01-29T13:39:38.002Z,101891.06
2023-01-29T13:42:19.419Z,101888.31
2023-01-29T13:45:06.917Z,101888.34
2023-01-29T13:47:37.170Z,101883.09
2023-01-29T13:50:10.222Z,101881.13
2023-01-29T13:52:43.472Z,101879.41
2023-01-29T13:55:21.334Z,101880.28
2023-01-29T13:57:54.661Z,101874.06
2023-01-29T14:00:22.021Z,101873.91
2023-01-29T14:03:08.927Z,101874.00
2023-01-29T14:05:39.864Z,101875.53
2023-01-29T14:08:07.883Z,101872.00
2023-01-29T14:10:36.177Z,101865.22
2023-01-29T14:13:18.436Z,101866.78
2023-01-29T14:15:46.482Z,101862.50
2023-01-29T14:18:21.330Z,101858.03
2023-01-29T14:20:47.886Z,101865.19
2023-01-29T14:23:52.997Z,101867.81
2023-01-29T14:26:31.708Z,101850.22
2023-01-29T14:29:14.550Z,101856.28
2023-01-29T14:31:59.047Z,101849.31
2023-01-29T14:34:30.134Z,101845.66
2023-01-29T14:36:59.683Z,101850.19
2023-01-29T14:39:43.880Z,101852.72
2023-01-29T14:42:19.127Z,101841.34
2023-01-29T14:44:48.685Z,101840.38
2023-01-29T14:47:19.825Z,101832.41
2023-01-29T14:49:55.081Z,101832.50
2023-01-29T14:52:38.799Z,101833.28
2023-01-29T14:55:31.307Z,101831.53
2023-01-29T14:57:58.520Z,101832.31
2023-01-29T15:00:31.274Z,101819.97
2023-01-29T15:03:02.062Z,101822.59
2023-01-29T15:05:36.299Z,101820.75
2023-01-29T15:08:39.198Z,101819.00
2023-01-29T15:11:31.596Z,101819.88
2023-01-29T15:14:07.135Z,101820.72
2023-01-29T15:16:51.869Z,101810.97
2023-01-29T15:19:24.742Z,101806.53
2023-01-29T15:22:10.388Z,101800.31
2023-01-29T15:24:38.946Z,101798.56
2023-01-29T15:27:07.915Z,101800.31
2023-01-29T15:29:35.492Z,101799.53
2023-01-29T15:32:02.376Z,101794.22
2023-01-29T15:34:29.217Z,101780.97
2023-01-29T15:36:55.850Z,101791.53
2023-01-29T15:39:24.181Z,101780.94
2023-01-29T15:41:52.254Z,101785.25
2023-01-29T15:44:22.348Z,101786.13
2023-01-29T15:46:51.866Z,101770.16
2023-01-29T15:49:25.010Z,101771.94
2023-01-29T15:51:57.015Z,101768.59
2023-01-29T15:54:24.448Z,101767.59
2023-01-29T15:56:52.217Z,101758.91
2023-01-29T15:59:26.579Z,101762.34
2023-01-29T16:01:54.230Z,101768.53
2023-01-29T16:04:24.709Z,101765.97
2023-01-29T16:06:53.625Z,101759.72
2023-01-29T16:09:23.764Z,101757.06
2023-01-29T16:11:51.861Z,101744.75
2023-01-29T16:14:22.221Z,101749.13
2023-01-29T16:16:49.354Z,101752.72
2023-01-29T16:19:22.392Z,101746.44
2023-01-29T16:21:56.212Z,101745.66
2023-01-29T16:24:25.148Z,101745.75
2023-01-29T16:27:19.195Z,101750.16
2023-01-29T16:29:45.863Z,101743.88
2023-01-29T16:32:14.149Z,101749.13
2023-01-29T16:34:48.338Z,101744.75
2023-01-29T16:37:25.495Z,101748.22
2023-01-29T16:39:52.901Z,101736.69
2023-01-29T16:42:25.147Z,101735.91
2023-01-29T16:44:59.652Z,101736.78
2023-01-29T16:47:32.985Z,101747.38
2023-01-29T16:50:18.655Z,101741.22
2023-01-29T16:52:59.763Z,101741.22
2023-01-29T16:55:27.110Z,101736.00
2023-01-29T16:57:54.899Z,101741.34
2023-01-29T17:00:26.764Z,101740.19
2023-01-29T17:02:57.679Z,101735.97
2023-01-29T17:05:27.812Z,101745.63
2023-01-29T17:07:57.600Z,101736.78
2023-01-29T17:10:25.795Z,101734.91
2023-01-29T17:13:03.956Z,101728.88
2023-01-29T17:15:35.265Z,101719.22
2023-01-29T17:18:02.279Z,101718.25
2023-01-29T17:20:30.218Z,101716.50
2023-01-29T17:22:56.974Z,101709.56
2023-01-29T17:25:23.922Z,101708.66
2023-01-29T17:27:53.540Z,101713.03
2023-01-29T17:30:22.297Z,101699.75
2023-01-29T17:32:49.080Z,101697.16
2023-01-29T17:35:16.960Z,101688.31
2023-01-29T17:37:44.486Z,101689.25
2023-01-29T17:40:34.021Z,101689.31
2023-01-29T17:43:00.708Z,101695.47
2023-01-29T17:45:29.517Z,101679.66
2023-01-29T17:47:56.237Z,101671.63
2023-01-29T17:50:27.510Z,101675.00
2023-01-29T17:52:54.582Z,101659.28
2023-01-29T17:55:21.296Z,101668.97
2023-01-29T17:57:47.941Z,101656.69
2023-01-29T18:00:23.727Z,101645.25
2023-01-29T18:02:50.463Z,101648.78
2023-01-29T18:05:18.257Z,101650.50
2023-01-29T18:07:46.142Z,101640.94
2023-01-29T18:10:18.773Z,101630.38
2023-01-29T18:12:45.518Z,101635.72
2023-01-29T18:15:12.394Z,101628.56
2023-01-29T18:17:39.773Z,101627.78
2023-01-29T18:20:17.266Z,101619.03
2023-01-29T18:22:44.046Z,101610.19
2023-01-29T18:25:10.704Z,101610.19
2023-01-29T18:27:37.361Z,101604.78
2023-01-29T18:30:05.205Z,101612.69
2023-01-29T18:32:31.931Z,101608.28
2023-01-29T18:34:58.681Z,101610.13
2023-01-29T18:37:25.374Z,101604.00
2023-01-29T18:39:53.125Z,101611.88
2023-01-29T18:42:19.829Z,101600.31
2023-01-29T18:44:46.531Z,101595.13
2023-01-29T18:47:13.951Z,101591.63
2023-01-29T18:49:40.725Z,101593.34
2023-01-29T18:52:07.839Z,101602.19
2023-01-29T18:54:34.500Z,101600.34
2023-01-29T18:57:09.296Z,101601.28
2023-01-29T18:59:41.148Z,101595.94
2023-01-29T19:02:08.059Z,101599.56
2023-01-29T19:04:35.001Z,101595.13
2023-01-29T19:07:01.830Z,101582.84
2023-01-29T19:09:31.667Z,101572.28
2023-01-29T19:11:58.432Z,101574.97
2023-01-29T19:14:25.131Z,101568.75
2023-01-29T19:16:51.906Z,101564.16
2023-01-29T19:19:21.788Z,101573.03
2023-01-29T19:21:48.619Z,101561.69
2023-01-29T19:24:15.480Z,101552.06
2023-01-29T19:26:42.218Z,101545.00
2023-01-29T19:29:09.681Z,101537.09
2023-01-29T19:31:36.645Z,101538.06
2023-01-29T19:34:03.532Z,101527.47
2023-01-29T19:36:30.167Z,101523.09
2023-01-29T19:38:56.874Z,101530.97
2023-01-29T19:41:23.695Z,101523.03
2023-01-29T19:43:50.434Z,101516.09
2023-01-29T19:46:17.668Z,101509.03
2023-01-29T19:48:46.206Z,101511.69
2023-01-29T19:51:13.637Z,101509.00
2023-01-29T19:53:44.283Z,101505.50
2023-01-29T19:56:15.033Z,101509.00
2023-01-29T19:58:42.779Z,101491.38
2023-01-29T20:01:20.295Z,101491.44
2023-01-29T20:03:50.179Z,101491.41
2023-01-29T20:06:18.552Z,101484.41
2023-01-29T20:08:46.695Z,101485.22
2023-01-29T20:11:14.246Z,101474.69
2023-01-29T20:13:40.907Z,101471.16
2023-01-29T20:16:08.155Z,101458.88
2023-01-29T20:18:35.145Z,101464.19
2023-01-29T20:21:10.039Z,101458.94
2023-01-29T20:23:38.797Z,101450.13
2023-01-29T20:26:07.143Z,101448.28
2023-01-29T20:28:35.033Z,101450.88
2023-01-29T20:31:02.272Z,101448.31
2023-01-29T20:33:29.243Z,101432.44
2023-01-29T20:35:58.430Z,101439.50
2023-01-29T20:38:30.243Z,101433.34
2023-01-29T20:41:17.510Z,101422.84
2023-01-29T20:43:47.438Z,101416.69
2023-01-29T20:46:14.595Z,101407.94
2023-01-29T20:48:42.239Z,101398.25
2023-01-29T20:51:15.824Z,101399.03
2023-01-29T20:53:45.325Z,101399.09
2023-01-29T20:56:12.923Z,101395.53
2023-01-29T20:58:41.157Z,101392.97
2023-01-29T21:01:12.405Z,101392.13
2023-01-29T21:03:40.090Z,101386.75
2023-01-29T21:06:08.744Z,101382.41
2023-01-29T21:08:36.393Z,101371.84
2023-01-29T21:11:04.443Z,101361.31
2023-01-29T21:13:31.474Z,101355.13
2023-01-29T21:15:58.206Z,101349.88
2023-01-29T21:18:26.409Z,101344.56
2023-01-29T21:20:53.682Z,101341.09
2023-01-29T21:23:20.503Z,101341.97
2023-01-29T21:25:47.239Z,101341.03
2023-01-29T21:28:15.106Z,101323.50
2023-01-29T21:30:41.853Z,101324.41
2023-01-29T21:33:11.571Z,101326.19
2023-01-29T21:35:38.695Z,101331.47
2023-01-29T21:38:05.596Z,101313.88
2023-01-29T21:40:32.400Z,101313.88
2023-01-29T21:43:15.566Z,101300.69
2023-01-29T21:45:42.928Z,101296.31
2023-01-29T21:48:12.723Z,101302.44
2023-01-29T21:50:39.553Z,101288.38
2023-01-29T21:53:06.285Z,101290.16
2023-01-29T21:55:33.343Z,101275.22
2023-01-29T21:58:00.543Z,101291.03
2023-01-29T22:00:27.708Z,101278.72
2023-01-29T22:02:54.541Z,101277.00
2023-01-29T22:05:21.200Z,101277.84
2023-01-29T22:07:48.998Z,101278.69
2023-01-29T22:10:17.720Z,101268.13
2023-01-29T22:12:45.033Z,101257.56
2023-01-29T22:15:12.884Z,101263.72
2023-01-29T22:17:41.613Z,101253.22
2023-01-29T22:20:10.157Z,101254.97
2023-01-29T22:22:36.883Z,101255.81
2023-01-29T22:25:04.161Z,101246.19
2023-01-29T22:27:33.051Z,101240.06
2023-01-29T22:30:00.011Z,101232.16
2023-01-29T22:32:26.743Z,101224.25
2023-01-29T22:34:53.483Z,101204.88
2023-01-29T22:37:20.147Z,101205.72
2023-01-29T22:39:49.826Z,101212.75
2023-01-29T22:42:19.355Z,101220.69
2023-01-29T22:44:46.035Z,101207.50
2023-01-29T22:47:12.789Z,101203.13
2023-01-29T22:49:39.406Z,101190.81
2023-01-29T22:52:12.086Z,101176.78
2023-01-29T22:54:43.172Z,101177.63
2023-01-29T22:57:14.443Z,101163.59
2023-01-29T22:59:47.331Z,101158.34
2023-01-29T23:02:14.071Z,101157.44
2023-01-29T23:04:40.792Z,101143.41
2023-01-29T23:07:07.580Z,101136.38
2023-01-29T23:09:34.275Z,101139.88
2023-01-29T23:12:01.507Z,101144.31
2023-01-29T23:14:28.212Z,101129.38
2023-01-29T23:16:54.848Z,101125.84
2023-01-29T23:19:21.557Z,101118.78
2023-01-29T23:21:48.189Z,101110.91
2023-01-29T23:24:15.075Z,101115.28
2023-01-29T23:27:00.516Z,101103.00
2023-01-29T23:29:27.264Z,101103.81
2023-01-29T23:31:54.012Z,101090.66
2023-01-29T23:34:26.892Z,101103.84
2023-01-29T23:36:53.556Z,101096.84
2023-01-29T23:39:20.679Z,101086.31
2023-01-29T23:41:47.328Z,101082.78
2023-01-29T23:44:14.251Z,101074.88
2023-01-29T23:46:40.915Z,101074.88
2023-01-29T23:49:07.619Z,101057.31
2023-01-29T23:51:34.651Z,101059.06
2023-01-29T23:54:01.346Z,101072.19
2023-01-29T23:56:28.021Z,101063.47
2023-01-29T23:58:56.058Z,101074.84
